Time;durP1;ratioP1;P1;durP2;ratioP2;P2;SDS_P1;SDS_P2;PMS_P1;PMS_P2;Temp;Humidity;BMP_temperature;BMP_pressure;BME280_temperature;BME280_humidity;BME280_pressure;Samples;Min_cycle;Max_cycle;Signal;HPM_P1;HPM_P2
2023/12/20 00:01:45;;;;;;;64.30;31.47;;;;;;;-141.97;100.00;46490.94;4949897;29;20168;-82
2023/12/20 00:04:10;;;;;;;63.93;31.60;;;;;;;-141.97;100.00;46435.22;4949888;29;20208;-83
2023/12/20 00:06:36;;;;;;;82.30;37.17;;;;;;;-141.97;100.00;46068.25;4949808;29;20165;-82
2023/12/20 00:09:01;;;;;;;74.73;35.57;;;;;;;-141.97;100.00;46246.94;4950203;29;20161;-82
2023/12/20 00:11:26;;;;;;;73.53;33.20;;;;;;;-141.97;100.00;46248.84;4949736;28;20169;-83
2023/12/20 00:13:52;;;;;;;73.63;34.43;;;;;;;-141.97;100.00;46552.44;4949922;28;20315;-83
2023/12/20 00:16:17;;;;;;;111.57;45.40;;;;;;;-141.97;100.00;46454.44;5032315;28;20165;-84
2023/12/20 00:18:42;;;;;;;132.97;53.43;;;;;;;-141.97;100.00;46562.03;4949814;29;20193;-83
2023/12/20 00:21:08;;;;;;;117.60;47.80;;;;;;;-141.97;100.00;46254.59;4950512;28;20165;-83
2023/12/20 00:23:33;;;;;;;113.80;47.43;;;;;;;-141.97;100.00;46062.47;5015608;28;20283;-84
2023/12/20 00:25:59;;;;;;;124.20;47.73;;;;;;;-141.97;100.00;46246.94;4950040;29;20157;-84
2023/12/20 00:28:24;;;;;;;142.63;50.93;;;;;;;-141.97;100.00;46112.44;4949832;28;20238;-83
2023/12/20 00:30:49;;;;;;;120.30;44.83;;;;;;;-141.97;100.00;46175.84;4949795;28;20161;-82
2023/12/20 00:33:15;;;;;;;59.47;27.27;;;;;;;-141.97;100.00;46654.28;5015527;28;20172;-83
2023/12/20 00:35:40;;;;;;;64.27;25.87;;;;;;;-141.97;100.00;46252.69;4949564;29;20191;-83
2023/12/20 00:38:06;;;;;;;72.23;31.43;;;;;;;-141.97;100.00;46081.69;4949650;28;20211;-83
2023/12/20 00:40:33;;;;;;;58.03;25.93;;;;;;;-141.97;100.00;46262.28;4949343;28;20165;-84
2023/12/20 00:42:58;;;;;;;58.13;26.47;;;;;;;-141.97;100.00;46285.34;5015431;28;20431;-83
2023/12/20 00:45:23;;;;;;;57.50;26.80;;;;;;;-141.97;100.00;46264.22;5037388;28;20413;-82
2023/12/20 00:47:49;;;;;;;101.10;49.10;;;;;;;-141.97;100.00;46512.06;5035596;28;20604;-82
2023/12/20 00:50:14;;;;;;;59.57;27.07;;;;;;;-141.97;100.00;46683.09;4950011;28;20173;-83
2023/12/20 00:52:40;;;;;;;54.83;26.10;;;;;;;-141.97;100.00;46225.78;4949312;28;20218;-83
2023/12/20 00:55:05;;;;;;;55.50;24.50;;;;;;;-141.97;100.00;46269.97;4949832;29;20196;-83
2023/12/20 00:57:31;;;;;;;58.87;26.33;;;;;;;-141.97;100.00;46254.59;4949816;28;20161;-82
2023/12/20 00:59:56;;;;;;;59.53;28.43;;;;;;;-141.97;100.00;46258.44;4949526;29;20197;-82
2023/12/20 01:02:22;;;;;;;55.43;27.47;;;;;;;-141.97;100.00;46271.91;4949740;29;20172;-83
2023/12/20 01:04:47;;;;;;;56.73;27.23;;;;;;;-141.97;100.00;46458.28;4950173;28;20173;-82
2023/12/20 01:07:12;;;;;;;60.93;27.53;;;;;;;-141.97;100.00;45977.94;4950123;28;20177;-82
2023/12/20 01:09:38;;;;;;;58.23;28.13;;;;;;;-141.97;100.00;46052.88;4950011;28;20259;-84
2023/12/20 01:12:03;;;;;;;56.37;29.00;;;;;;;-141.97;100.00;46120.13;4949421;29;20572;-82
2023/12/20 01:14:29;;;;;;;52.60;26.20;;;;;;;-141.97;100.00;46487.09;4949555;28;20218;-83
2023/12/20 01:16:54;;;;;;;44.07;21.27;;;;;;;-141.97;100.00;46179.69;5019120;28;20246;-84
2023/12/20 01:19:19;;;;;;;58.43;25.43;;;;;;;-141.97;100.00;46663.88;4952887;28;20271;-84
2023/12/20 01:21:45;;;;;;;43.73;20.60;;;;;;;-141.97;100.00;46250.78;4952474;29;20176;-83
2023/12/20 01:24:10;;;;;;;37.87;19.40;;;;;;;-141.97;100.00;46189.28;4952192;28;20252;-84
2023/12/20 01:26:36;;;;;;;41.33;18.23;;;;;;;-141.97;100.00;46200.81;4955656;29;20279;-82
2023/12/20 01:29:01;;;;;;;38.53;19.30;;;;;;;-141.97;100.00;46054.81;5036168;28;20172;-82
2023/12/20 01:31:27;;;;;;;41.70;18.97;;;;;;;-141.97;100.00;46248.84;5018623;28;20288;-83
2023/12/20 01:33:52;;;;;;;58.20;23.97;;;;;;;-141.97;100.00;46477.50;4952369;29;20177;-82
2023/12/20 01:36:18;;;;;;;42.27;19.20;;;;;;;-141.97;100.00;46258.44;4952216;29;20246;-83
2023/12/20 01:38:43;;;;;;;40.17;18.30;;;;;;;-141.97;100.00;46669.63;5018625;28;20277;-81
2023/12/20 01:41:09;;;;;;;51.20;23.33;;;;;;;-141.97;100.00;45979.88;5018732;28;20205;-83
2023/12/20 01:43:34;;;;;;;46.80;22.30;;;;;;;-141.97;100.00;46160.47;5035488;28;20172;-83
2023/12/20 01:46:00;;;;;;;43.07;22.10;;;;;;;-141.97;100.00;46273.81;4952054;29;20169;-83
2023/12/20 01:48:27;;;;;;;38.40;17.87;;;;;;;-141.97;100.00;46131.66;4952289;29;20169;-83
2023/12/20 01:50:54;;;;;;;40.23;18.40;;;;;;;-141.97;100.00;46062.47;4952399;29;20256;-82
2023/12/20 01:53:23;;;;;;;37.37;17.37;;;;;;;-141.97;100.00;46025.97;4952041;28;20412;-83
2023/12/20 01:55:51;;;;;;;46.60;19.90;;;;;;;-141.97;100.00;46250.78;4951805;29;20803;-81
2023/12/20 01:58:17;;;;;;;43.57;19.10;;;;;;;-141.97;100.00;46097.06;4953223;29;20488;-81
2023/12/20 02:00:42;;;;;;;42.33;19.70;;;;;;;-141.97;100.00;46200.81;4951797;29;20499;-82
2023/12/20 02:03:08;;;;;;;43.00;19.20;;;;;;;-141.97;100.00;46271.91;5034745;28;20176;-83
2023/12/20 02:05:36;;;;;;;38.77;18.40;;;;;;;-141.97;100.00;46074.00;5018010;28;20177;-82
2023/12/20 02:08:01;;;;;;;39.67;18.53;;;;;;;-141.97;100.00;46281.50;4951924;28;20303;-83
2023/12/20 02:10:27;;;;;;;43.87;18.83;;;;;;;-141.97;100.00;46181.59;4951980;29;20507;-82
2023/12/20 02:12:52;;;;;;;40.03;18.13;;;;;;;-141.97;100.00;46168.16;5034738;28;20257;-83
2023/12/20 02:15:18;;;;;;;37.03;17.00;;;;;;;-141.97;100.00;46285.34;4953495;29;20622;-82
2023/12/20 02:17:44;;;;;;;41.77;18.03;;;;;;;-141.97;100.00;46412.16;4953879;29;20180;-82
2023/12/20 02:20:09;;;;;;;37.53;16.13;;;;;;;-141.97;100.00;46389.09;4951808;29;20189;-83
2023/12/20 02:22:35;;;;;;;38.83;18.30;;;;;;;-141.97;100.00;46492.88;4951429;28;20972;-83
2023/12/20 02:25:00;;;;;;;44.00;18.77;;;;;;;-141.97;100.00;46433.28;5017999;28;20272;-83
2023/12/20 02:27:27;;;;;;;40.70;19.30;;;;;;;-141.97;100.00;46612.00;4952133;29;20240;-83
2023/12/20 02:29:53;;;;;;;41.70;19.13;;;;;;;-141.97;100.00;46131.66;4953288;29;20177;-83
2023/12/20 02:32:19;;;;;;;40.33;18.03;;;;;;;-141.97;100.00;46283.44;4956494;29;20478;-82
2023/12/20 02:34:44;;;;;;;38.03;18.13;;;;;;;-141.97;100.00;46456.34;4951836;29;20276;-83
2023/12/20 02:37:09;;;;;;;38.00;17.97;;;;;;;-141.97;100.00;46273.81;4951501;29;20172;-83
2023/12/20 02:39:35;;;;;;;36.40;18.20;;;;;;;-141.97;100.00;46114.34;4951744;29;20250;-82
2023/12/20 02:42:00;;;;;;;38.17;17.43;;;;;;;-141.97;100.00;46619.69;4952077;29;20180;-82
2023/12/20 02:44:26;;;;;;;43.57;17.80;;;;;;;-141.97;100.00;46283.44;4952554;28;20173;-83
2023/12/20 02:46:51;;;;;;;36.47;17.20;;;;;;;-141.97;100.00;46204.66;5018489;28;20228;-83
2023/12/20 02:49:16;;;;;;;35.53;17.80;;;;;;;-141.97;100.00;46154.69;4951817;29;20173;-83
2023/12/20 02:51:42;;;;;;;37.97;18.53;;;;;;;-141.97;100.00;46243.09;4952177;28;20272;-84
2023/12/20 02:54:07;;;;;;;39.57;18.17;;;;;;;-141.97;100.00;46310.31;4951581;29;20177;-83
2023/12/20 02:56:33;;;;;;;36.93;17.93;;;;;;;-141.97;100.00;46293.03;4951788;29;20282;-82
2023/12/20 02:58:58;;;;;;;43.00;17.93;;;;;;;-141.97;100.00;46275.75;4951103;29;20196;-83
2023/12/20 03:01:24;;;;;;;41.70;19.03;;;;;;;-141.97;100.00;46079.78;4951109;29;20256;-84
2023/12/20 03:03:49;;;;;;;39.97;18.53;;;;;;;-141.97;100.00;46283.44;4951296;29;20176;-83
2023/12/20 03:06:19;;;;;;;41.33;19.27;;;;;;;-141.97;100.00;46221.94;4950865;29;20553;-84
2023/12/20 03:08:44;;;;;;;35.77;17.10;;;;;;;-141.97;100.00;46087.47;4951006;29;20286;-83
2023/12/20 03:11:10;;;;;;;39.43;18.40;;;;;;;-141.97;100.00;46608.16;4950930;28;20485;-84
2023/12/20 03:13:35;;;;;;;35.13;16.87;;;;;;;-141.97;100.00;46177.75;4951059;29;20169;-84
2023/12/20 03:16:01;;;;;;;64.63;30.97;;;;;;;-141.97;100.00;46602.38;4951698;29;20188;-84
2023/12/20 03:18:27;;;;;;;114.93;50.37;;;;;;;-141.97;100.00;46673.47;4950862;29;20254;-83
2023/12/20 03:20:53;;;;;;;79.13;35.47;;;;;;;-141.97;100.00;46104.75;4950785;29;20648;-84
2023/12/20 03:23:18;;;;;;;73.10;32.47;;;;;;;-141.97;100.00;46014.44;5016294;28;20488;-83
2023/12/20 03:25:44;;;;;;;72.10;30.30;;;;;;;-141.97;100.00;46304.56;4950613;29;20664;-83
2023/12/20 03:28:09;;;;;;;43.47;20.67;;;;;;;-141.97;100.00;46254.59;4951040;29;20196;-83
2023/12/20 03:30:35;;;;;;;54.00;22.47;;;;;;;-141.97;100.00;46663.88;4950965;28;20181;-84
2023/12/20 03:33:00;;;;;;;46.20;22.27;;;;;;;-141.97;100.00;46592.78;4950832;29;20256;-83
2023/12/20 03:35:26;;;;;;;49.40;22.80;;;;;;;-141.97;100.00;46469.81;4950847;29;20169;-84
2023/12/20 03:37:51;;;;;;;66.50;28.63;;;;;;;-141.97;100.00;46229.63;5016087;28;20563;-84
2023/12/20 03:40:17;;;;;;;70.03;31.17;;;;;;;-141.97;100.00;46050.97;4950328;29;20196;-84
2023/12/20 03:42:42;;;;;;;70.37;31.73;;;;;;;-141.97;100.00;46538.97;4950560;29;20192;-84
2023/12/20 03:45:08;;;;;;;58.90;27.90;;;;;;;-141.97;100.00;46135.50;4950532;29;20173;-84
2023/12/20 03:47:33;;;;;;;49.63;22.67;;;;;;;-141.97;100.00;46293.03;4950675;28;20240;-83
2023/12/20 03:49:59;;;;;;;37.97;19.77;;;;;;;-141.97;100.00;46300.72;4950958;29;20969;-84
2023/12/20 03:52:24;;;;;;;36.63;16.87;;;;;;;-141.97;100.00;46039.44;4950069;29;20164;-83
2023/12/20 03:54:50;;;;;;;38.73;18.67;;;;;;;-141.97;100.00;46147.03;4949986;28;20677;-83
2023/12/20 03:57:15;;;;;;;33.13;15.83;;;;;;;-141.97;100.00;46514.00;4950372;29;20165;-83
2023/12/20 03:59:40;;;;;;;40.07;17.17;;;;;;;-141.97;100.00;46612.00;4950636;28;20220;-83
2023/12/20 04:02:06;;;;;;;31.63;15.50;;;;;;;-141.97;100.00;46663.88;4950082;28;20663;-83
2023/12/20 04:04:31;;;;;;;32.70;14.80;;;;;;;-141.97;100.00;46310.31;4950070;29;20318;-84
2023/12/20 04:06:57;;;;;;;31.80;15.57;;;;;;;-141.97;100.00;46298.81;5027114;28;20177;-84
2023/12/20 04:09:22;;;;;;;42.00;17.27;;;;;;;-141.97;100.00;46462.13;4971272;28;20173;-82
2023/12/20 04:11:48;;;;;;;87.47;34.77;;;;;;;-141.97;100.00;46569.72;4972080;28;20177;-82
2023/12/20 04:14:14;;;;;;;68.93;31.37;;;;;;;-141.97;100.00;46289.19;4971355;29;20175;-84
2023/12/20 04:16:39;;;;;;;75.97;29.83;;;;;;;-141.97;100.00;46642.75;4970417;28;20178;-83
2023/12/20 04:19:05;;;;;;;102.97;36.53;;;;;;;-141.97;100.00;46145.09;4974499;28;20515;-82
2023/12/20 04:21:30;;;;;;;62.00;24.57;;;;;;;-141.97;100.00;46233.47;5027104;28;20208;-82
2023/12/20 04:23:56;;;;;;;45.03;18.47;;;;;;;-141.97;100.00;46164.31;5036615;28;20236;-82
2023/12/20 04:26:22;;;;;;;51.73;22.57;;;;;;;-141.97;100.00;46185.44;5024347;28;20177;-82
2023/12/20 04:28:47;;;;;;;50.63;22.67;;;;;;;-141.97;100.00;46323.78;4956585;28;20175;-83
2023/12/20 04:31:13;;;;;;;58.87;25.70;;;;;;;-141.97;100.00;46097.06;4953589;29;20177;-82
2023/12/20 04:33:38;;;;;;;317.30;125.10;;;;;;;-141.97;100.00;46298.81;4952252;29;20157;-83
2023/12/20 04:36:04;;;;;;;54.90;25.37;;;;;;;-141.97;100.00;46427.53;4951871;29;20201;-83
2023/12/20 04:38:29;;;;;;;54.20;23.63;;;;;;;-141.97;100.00;46110.50;5023039;28;20273;-87
2023/12/20 04:40:55;;;;;;;61.27;27.57;;;;;;;-141.97;100.00;46644.66;4952540;29;20566;-83
2023/12/20 04:43:20;;;;;;;87.70;38.40;;;;;;;-141.97;100.00;46202.72;4952122;29;20167;-83
2023/12/20 04:45:46;;;;;;;116.20;54.10;;;;;;;-141.97;100.00;46293.03;4950200;29;20653;-83
2023/12/20 04:48:12;;;;;;;98.57;47.53;;;;;;;-141.97;100.00;46615.84;4949831;29;20328;-83
2023/12/20 04:50:37;;;;;;;79.87;39.17;;;;;;;-141.97;100.00;46031.75;4951545;28;20173;-83
2023/12/20 04:53:02;;;;;;;121.33;52.23;;;;;;;-141.97;100.00;46277.66;5036016;28;20234;-82
2023/12/20 04:55:28;;;;;;;303.53;116.50;;;;;;;-141.97;100.00;46287.28;4952714;29;20184;-84
2023/12/20 04:57:54;;;;;;;257.33;105.83;;;;;;;-141.97;100.00;46185.44;4953313;29;20169;-82
2023/12/20 05:00:20;;;;;;;382.77;151.90;;;;;;;-141.97;100.00;46206.56;4952976;28;20243;-84
2023/12/20 05:02:45;;;;;;;274.70;118.10;;;;;;;-141.97;100.00;46058.63;4968305;28;20784;-84
2023/12/20 05:05:11;;;;;;;218.03;94.67;;;;;;;-141.97;100.00;46285.34;4968595;28;20189;-84
2023/12/20 05:07:36;;;;;;;158.17;72.90;;;;;;;-141.97;100.00;46250.78;4952516;28;20172;-85
2023/12/20 05:10:04;;;;;;;107.53;50.13;;;;;;;-141.97;100.00;46196.97;4953606;29;20176;-83
2023/12/20 05:12:30;;;;;;;132.73;56.63;;;;;;;-141.97;100.00;46300.72;4955058;28;20164;-83
2023/12/20 05:14:55;;;;;;;177.53;76.63;;;;;;;-141.97;100.00;46277.66;4953509;28;20590;-82
2023/12/20 05:17:20;;;;;;;235.53;99.30;;;;;;;-141.97;100.00;46293.03;4968863;28;20199;-83
2023/12/20 05:19:46;;;;;;;198.20;82.50;;;;;;;-141.97;100.00;46302.66;4955425;28;20200;-83
2023/12/20 05:22:11;;;;;;;308.40;123.53;;;;;;;-141.97;100.00;46635.06;4954374;28;20246;-83
2023/12/20 05:24:37;;;;;;;485.57;230.33;;;;;;;-141.97;100.00;46293.03;4954145;28;20227;-85
2023/12/20 05:27:02;;;;;;;272.27;114.50;;;;;;;-141.97;100.00;46481.34;4953253;28;20180;-84
2023/12/20 05:29:28;;;;;;;152.57;66.83;;;;;;;-141.97;100.00;46289.19;4953465;28;20216;-83
2023/12/20 05:31:54;;;;;;;289.20;122.50;;;;;;;-141.97;100.00;46273.81;4954130;28;20161;-84
2023/12/20 05:34:20;;;;;;;289.13;120.77;;;;;;;-141.97;100.00;46231.56;4953060;28;20310;-84
2023/12/20 05:36:45;;;;;;;224.70;99.07;;;;;;;-141.97;100.00;46075.94;4956335;28;20409;-83
2023/12/20 05:39:11;;;;;;;201.17;87.97;;;;;;;-141.97;100.00;46245.00;4954491;28;20292;-83
2023/12/20 05:41:36;;;;;;;178.50;75.97;;;;;;;-141.97;100.00;46669.63;4954470;28;20314;-84
2023/12/20 05:44:01;;;;;;;188.40;80.30;;;;;;;-141.97;100.00;46300.72;4968978;28;20181;-84
2023/12/20 05:46:27;;;;;;;149.70;61.87;;;;;;;-141.97;100.00;46316.09;4967428;28;20176;-84
2023/12/20 05:48:52;;;;;;;200.67;79.77;;;;;;;-141.97;100.00;46283.44;4953511;28;20258;-84
2023/12/20 05:51:18;;;;;;;264.20;110.83;;;;;;;-141.97;100.00;46308.41;4952885;29;20176;-84
2023/12/20 05:53:44;;;;;;;355.40;133.73;;;;;;;-141.97;100.00;46104.75;4955138;28;20255;-83
2023/12/20 05:56:10;;;;;;;302.70;114.13;;;;;;;-141.97;100.00;46308.41;4952903;28;20592;-84
2023/12/20 05:58:36;;;;;;;239.80;96.73;;;;;;;-141.97;100.00;46147.03;4953500;28;20474;-84
2023/12/20 06:01:05;;;;;;;270.97;109.80;;;;;;;-141.97;100.00;46254.59;4969224;28;20776;-83
2023/12/20 06:03:31;;;;;;;273.60;105.20;;;;;;;-141.97;100.00;46510.16;4968242;28;20195;-84
2023/12/20 06:05:56;;;;;;;261.83;113.80;;;;;;;-141.97;100.00;46319.94;4952396;28;21007;-84
2023/12/20 06:08:22;;;;;;;216.37;92.47;;;;;;;-141.97;100.00;46287.28;4952202;29;20223;-83
2023/12/20 06:10:47;;;;;;;241.23;104.43;;;;;;;-141.97;100.00;46289.19;4953133;28;20180;-84
2023/12/20 06:13:13;;;;;;;106.40;47.73;;;;;;;-141.97;100.00;46314.16;4950542;28;20600;-84
2023/12/20 06:15:39;;;;;;;91.80;41.63;;;;;;;-141.97;100.00;46200.81;4967347;28;20184;-84
2023/12/20 06:18:05;;;;;;;85.27;39.53;;;;;;;-141.97;100.00;46081.69;4967903;28;20470;-83
2023/12/20 06:20:31;;;;;;;66.23;30.23;;;;;;;-141.97;100.00;46281.50;4952998;28;20413;-84
2023/12/20 06:22:56;;;;;;;58.20;28.73;;;;;;;-141.97;100.00;46198.91;4951256;28;20243;-83
2023/12/20 06:25:21;;;;;;;64.00;29.97;;;;;;;-141.97;100.00;46064.41;4951906;28;20583;-84
2023/12/20 06:27:47;;;;;;;75.37;34.90;;;;;;;-141.97;100.00;46279.59;4951294;29;20161;-83
2023/12/20 06:30:12;;;;;;;73.53;35.13;;;;;;;-141.97;100.00;46527.44;4950014;28;20569;-83
2023/12/20 06:32:39;;;;;;;75.60;36.83;;;;;;;-141.97;100.00;46266.13;4951122;28;20181;-83
2023/12/20 06:35:05;;;;;;;66.23;32.00;;;;;;;-141.97;100.00;46508.22;4951282;28;20175;-85
2023/12/20 06:37:30;;;;;;;66.67;32.10;;;;;;;-141.97;100.00;46264.22;4950904;28;20479;-83
2023/12/20 06:39:56;;;;;;;79.53;38.30;;;;;;;-141.97;100.00;46039.44;4953583;29;20208;-83
2023/12/20 06:42:22;;;;;;;116.90;49.20;;;;;;;-141.97;100.00;46062.47;4953844;28;20328;-83
2023/12/20 06:44:48;;;;;;;103.10;46.07;;;;;;;-141.97;100.00;46535.13;4953841;28;20857;-84
2023/12/20 06:47:14;;;;;;;65.43;31.70;;;;;;;-141.97;100.00;46264.22;4952769;28;20169;-84
2023/12/20 06:49:40;;;;;;;72.83;33.37;;;;;;;-141.97;100.00;46150.84;4952559;28;20232;-84
2023/12/20 06:52:05;;;;;;;84.83;41.97;;;;;;;-141.97;100.00;46235.41;4952529;28;20427;-83
2023/12/20 06:54:31;;;;;;;65.57;34.37;;;;;;;-141.97;100.00;46097.06;4953528;28;20409;-85
2023/12/20 06:56:56;;;;;;;85.57;42.20;;;;;;;-141.97;100.00;45976.03;4950151;28;20181;-84
2023/12/20 06:59:21;;;;;;;67.30;33.47;;;;;;;-141.97;92.31;46097.06;4965434;28;20204;-86
2023/12/20 07:01:50;;;;;;;67.13;32.07;;;;;;;-141.97;79.65;46135.50;4951257;28;20173;-86
2023/12/20 07:04:16;;;;;;;84.77;44.57;;;;;;;-141.97;54.55;45749.34;4950698;28;20165;-86
2023/12/20 07:06:42;;;;;;;112.30;56.80;;;;;;;-141.97;51.85;45833.88;4981131;28;20220;-84
2023/12/20 07:09:07;;;;;;;88.53;45.03;;;;;;;-141.97;49.41;45937.59;4944408;29;20248;-85
2023/12/20 07:11:33;;;;;;;112.77;62.53;;;;;;;-141.97;48.55;46389.09;4950027;28;20236;-86
2023/12/20 07:13:58;;;;;;;181.93;108.70;;;;;;;-141.97;47.40;45874.22;4949661;28;20255;-87
2023/12/20 07:16:24;;;;;;;180.43;111.97;;;;;;;-141.97;47.05;46277.66;4950343;28;20169;-84
2023/12/20 07:18:50;;;;;;;122.43;71.60;;;;;;;-141.97;47.60;45989.47;4964552;28;20196;-85
2023/12/20 07:21:15;;;;;;;82.57;47.47;;;;;;;-141.97;47.10;46348.75;4950307;29;20223;-85
2023/12/20 07:23:41;;;;;;;66.83;38.27;;;;;;;-141.97;48.95;45843.47;4950433;28;20251;-87
2023/12/20 07:26:06;;;;;;;46.87;28.33;;;;;;;-141.97;47.65;46358.38;4950012;28;20255;-89
2023/12/20 07:28:32;;;;;;;44.00;27.50;;;;;;;-141.97;48.86;45797.38;4950755;29;20177;-90
2023/12/20 07:30:57;;;;;;;43.03;26.53;;;;;;;-141.97;52.86;45962.59;4952724;29;20240;-90
2023/12/20 07:33:22;;;;;;;54.53;32.43;;;;;;;-141.97;56.65;46018.28;4951754;28;20621;-89
2023/12/20 07:35:48;;;;;;;49.87;28.17;;;;;;;-141.97;58.90;45958.75;4972930;28;20192;-89
2023/12/20 07:38:13;;;;;;;79.60;43.67;;;;;;;-141.97;60.18;45916.47;4966107;28;20188;-89
2023/12/20 07:40:39;;;;;;;103.13;50.93;;;;;;;-141.97;62.41;46091.31;4951758;28;20703;-89
2023/12/20 07:43:04;;;;;;;77.43;38.53;;;;;;;-141.97;65.96;46381.41;4950969;28;20165;-90
2023/12/20 07:45:30;;;;;;;108.40;47.60;;;;;;;-141.97;66.37;45958.75;4965360;28;20254;-88
2023/12/20 07:47:55;;;;;;;66.10;33.67;;;;;;;-141.97;67.17;45958.75;4951637;28;20625;-90
2023/12/20 07:50:20;;;;;;;76.57;39.77;;;;;;;-141.97;66.80;46102.81;4950354;28;20176;-89
2023/12/20 07:52:46;;;;;;;71.07;38.67;;;;;;;-141.97;65.65;46074.00;4950790;28;20169;-89
2023/12/20 07:55:11;;;;;;;69.37;36.37;;;;;;;-141.97;65.76;46123.97;4951265;28;20537;-88
2023/12/20 07:57:37;;;;;;;68.43;33.90;;;;;;;-141.97;66.82;45974.09;4952045;29;20238;-87
2023/12/20 08:00:03;;;;;;;82.60;40.90;;;;;;;-141.97;66.36;45879.97;5016946;28;20201;-88
2023/12/20 08:02:29;;;;;;;60.10;30.67;;;;;;;-141.97;66.18;46492.88;5017537;28;20173;-88
2023/12/20 08:04:55;;;;;;;81.27;42.70;;;;;;;-141.97;65.08;46135.50;4950382;29;20459;-87
2023/12/20 08:07:21;;;;;;;61.97;32.93;;;;;;;-141.97;65.77;46016.38;4952041;29;20416;-87
2023/12/20 08:09:46;;;;;;;73.40;37.27;;;;;;;-141.97;67.61;46139.34;5003534;28;20673;-86
2023/12/20 08:12:12;;;;;;;72.67;39.40;;;;;;;-141.97;67.85;46573.56;4952323;29;20177;-86
2023/12/20 08:14:37;;;;;;;73.87;37.57;;;;;;;-141.97;67.84;46444.81;4952001;29;20206;-87
2023/12/20 08:17:03;;;;;;;62.90;34.17;;;;;;;-141.97;66.51;45977.94;4965522;28;20164;-88
2023/12/20 08:19:28;;;;;;;45.07;25.07;;;;;;;-141.97;66.01;45972.19;4949898;28;20680;-87
2023/12/20 08:21:54;;;;;;;63.20;35.27;;;;;;;-141.97;64.51;46127.81;5032361;28;20177;-87
2023/12/20 08:24:19;;;;;;;44.23;23.87;;;;;;;-141.97;62.45;45962.59;5031807;28;20678;-86
2023/12/20 08:26:46;;;;;;;49.27;25.83;;;;;;;-141.97;63.24;46250.78;5016486;28;20731;-85
2023/12/20 08:29:13;;;;;;;42.23;22.43;;;;;;;-141.97;62.17;45989.47;4952347;28;20176;-87
2023/12/20 08:31:39;;;;;;;67.67;29.43;;;;;;;-141.97;63.98;45960.66;4966721;28;20620;-86
2023/12/20 08:34:04;;;;;;;37.93;20.47;;;;;;;-141.97;66.13;46020.22;4948668;28;20181;-86
2023/12/20 08:36:29;;;;;;;40.13;19.83;;;;;;;-141.97;64.60;45895.34;4949854;28;20165;-86
2023/12/20 08:38:55;;;;;;;45.57;26.83;;;;;;;-141.97;65.84;45952.97;4950760;28;20215;-87
2023/12/20 08:41:21;;;;;;;54.17;29.87;;;;;;;-141.97;63.83;45881.91;4949350;28;20200;-86
2023/12/20 08:43:46;;;;;;;35.93;19.53;;;;;;;-141.97;61.16;45945.28;4969273;28;20173;-87
2023/12/20 08:46:13;;;;;;;36.10;19.90;;;;;;;-141.97;62.75;45935.69;4971542;28;20173;-87
2023/12/20 08:48:38;;;;;;;31.27;18.17;;;;;;;-141.97;62.92;45841.56;4968295;28;20193;-87
2023/12/20 08:51:07;;;;;;;33.37;18.27;;;;;;;-141.97;60.82;46045.19;4966324;28;20176;-86
2023/12/20 08:53:33;;;;;;;33.10;18.67;;;;;;;-141.97;64.25;45947.22;4964435;28;20193;-87
2023/12/20 08:56:01;;;;;;;37.97;20.53;;;;;;;-141.97;67.06;45976.03;4966494;28;20157;-87
2023/12/20 08:58:26;;;;;;;42.53;23.73;;;;;;;-141.97;66.74;46095.16;4972946;28;20181;-86
2023/12/20 09:00:52;;;;;;;33.17;18.43;;;;;;;-141.97;65.88;46001.00;4953967;28;20260;-87
2023/12/20 09:03:17;;;;;;;34.70;19.73;;;;;;;-141.97;67.96;46510.16;4967577;28;20570;-86
2023/12/20 09:05:42;;;;;;;36.70;18.90;;;;;;;-141.97;66.24;45974.09;4949245;28;20161;-87
2023/12/20 09:08:10;;;;;;;30.03;18.10;;;;;;;-141.97;64.49;46047.13;4948850;28;20562;-88
2023/12/20 09:10:35;;;;;;;35.27;19.13;;;;;;;-141.97;61.24;46269.97;4970725;28;20218;-87
2023/12/20 09:13:02;;;;;;;44.30;25.13;;;;;;;-141.97;58.25;46054.81;4949208;29;20248;-86
2023/12/20 09:15:27;;;;;;;36.13;21.07;;;;;;;-141.97;55.00;45997.16;5014828;28;20184;-87
2023/12/20 09:17:53;;;;;;;29.50;17.53;;;;;;;-141.97;53.21;46022.13;4950790;28;20157;-87
2023/12/20 09:20:19;;;;;;;34.73;20.30;;;;;;;-141.97;52.03;45993.31;5031462;28;20215;-87
2023/12/20 09:22:45;;;;;;;34.80;20.70;;;;;;;-141.97;51.63;45843.47;4948977;28;20605;-86
2023/12/20 09:25:15;;;;;;;33.20;20.03;;;;;;;-141.97;50.84;45997.16;5015494;28;20192;-87
2023/12/20 09:27:41;;;;;;;33.00;19.63;;;;;;;-141.97;50.77;45956.81;4951473;28;20200;-87
2023/12/20 09:30:07;;;;;;;38.30;21.57;;;;;;;-141.97;50.58;46385.25;4951485;28;20170;-87
2023/12/20 09:32:32;;;;;;;60.30;28.80;;;;;;;-141.97;51.10;46366.06;5016607;28;20634;-88
2023/12/20 09:34:57;;;;;;;39.30;22.07;;;;;;;-141.97;53.47;46018.28;5015794;28;20181;-88
2023/12/20 09:37:27;;;;;;;33.80;20.13;;;;;;;-141.97;55.21;45958.75;5018804;28;20168;-86
2023/12/20 09:39:53;;;;;;;34.77;19.50;;;;;;;-141.97;56.16;46310.31;5035201;28;20623;-87
2023/12/20 09:42:29;;;;;;;43.37;22.00;;;;;;;-141.97;54.76;46031.75;4953024;28;20177;-87
2023/12/20 09:44:56;;;;;;;42.60;19.87;;;;;;;-141.97;55.35;45847.31;5019643;28;20216;-87
2023/12/20 09:47:24;;;;;;;58.70;29.47;;;;;;;-141.97;56.36;45966.44;5019464;28;20623;-87
2023/12/20 09:49:50;;;;;;;47.93;26.83;;;;;;;-141.97;55.90;46352.59;4953024;29;20318;-88
2023/12/20 09:52:17;;;;;;;45.13;25.30;;;;;;;-141.97;54.56;46074.00;5020220;28;20183;-87
2023/12/20 09:54:44;;;;;;;63.73;33.57;;;;;;;-141.97;54.25;45862.69;5035765;28;20173;-86
2023/12/20 09:57:10;;;;;;;66.97;34.93;;;;;;;-141.97;56.42;46464.03;5018372;28;20176;-87
2023/12/20 09:59:35;;;;;;;60.73;32.73;;;;;;;-141.97;55.32;45856.91;5017661;28;20419;-88
2023/12/20 10:02:03;;;;;;;48.03;25.60;;;;;;;-141.97;53.87;46016.38;4975248;28;20305;-88
2023/12/20 10:04:31;;;;;;;34.20;20.80;;;;;;;-141.97;52.92;45828.09;4990272;28;20168;-88
2023/12/20 10:07:01;;;;;;;50.93;29.40;;;;;;;-141.97;53.13;46337.22;5052522;28;20166;-86
2023/12/20 10:09:29;;;;;;;55.13;29.20;;;;;;;-141.97;54.12;46369.88;5053098;28;20158;-87
2023/12/20 10:11:54;;;;;;;36.30;20.10;;;;;;;-141.97;53.43;46077.84;4979095;28;20181;-87
2023/12/20 10:14:23;;;;;;;37.67;21.80;;;;;;;-141.97;53.01;46266.13;4967672;28;20581;-87
2023/12/20 10:16:48;;;;;;;34.57;21.40;;;;;;;-141.97;53.71;46287.28;5054015;28;20212;-86
2023/12/20 10:19:17;;;;;;;34.93;19.90;;;;;;;-141.97;52.61;45981.78;5034431;28;20367;-86
2023/12/20 10:21:43;;;;;;;40.00;20.97;;;;;;;-141.97;51.71;45989.47;5003409;28;20169;-88
2023/12/20 10:24:08;;;;;;;33.80;19.63;;;;;;;-141.97;52.60;45860.75;4959065;28;20670;-88
2023/12/20 10:26:34;;;;;;;36.23;20.30;;;;;;;-141.97;52.29;46006.78;5052631;28;20208;-87
2023/12/20 10:29:04;;;;;;;33.40;20.37;;;;;;;-141.97;52.60;45826.19;5053920;28;20611;-88
2023/12/20 10:31:31;;;;;;;42.30;23.43;;;;;;;-141.97;54.37;46012.53;5032542;28;20567;-87
2023/12/20 10:33:58;;;;;;;37.87;21.90;;;;;;;-141.97;54.97;45989.47;4951752;28;20169;-88
2023/12/20 10:36:26;;;;;;;41.87;22.73;;;;;;;-141.97;55.61;46220.03;5046928;28;20166;-86
2023/12/20 10:38:53;;;;;;;69.30;37.47;;;;;;;-141.97;56.20;46089.38;5052222;28;20276;-86
2023/12/20 10:41:41;;;;;;;47.13;27.67;;;;;;;-141.97;56.85;46058.63;5032087;28;20173;-86
2023/12/20 10:44:07;;;;;;;159.77;81.93;;;;;;;-141.97;56.60;45879.97;4951204;28;20161;-87
2023/12/20 10:46:34;;;;;;;49.67;28.87;;;;;;;-141.97;56.10;45968.34;5050398;28;20170;-85
2023/12/20 10:49:02;;;;;;;40.20;23.20;;;;;;;-141.97;55.23;46446.75;5052988;28;20375;-86